Wainfleet, United Kingdom
Current Conditions -  °F | °C
As of 5:50 AM on Saturday 29 Nov 2014 (Local Time) from EGXC Reporting Station
Haze Haze  
Wind Chill:   Ceiling: 12000
Heat Index:   Visibility: 2.8mi
Dew Point:   Wind: 10mph
Humidity: 100%   Direction: 90°E
Pressure: 29.83"   Gusts: NA
Location:  53.03°N, 0.27°E
Report Text: EGXC 290550Z 09009KT 4500 HZ BKN120 09/09 Q1010 GRN
Loading
Personal Weather Stations






























Interactive Weather Map New forecast layout! Learn more

10-Day Weather Forecast

Advertisements
Track Severe Weather on mobile